sensor_id;sensor_type;location;lat;lon;timestamp;P1;durP1;ratioP1;P2;durP2;ratioP2
29516;SDS011;40993;50.594;8.664;2024-01-06T00:00:30;153.40;;;61.28;;
29516;SDS011;40993;50.594;8.664;2024-01-06T00:02:58;154.90;;;62.50;;
29516;SDS011;40993;50.594;8.664;2024-01-06T00:05:27;150.80;;;60.17;;
29516;SDS011;40993;50.594;8.664;2024-01-06T00:07:54;153.30;;;60.67;;
29516;SDS011;40993;50.594;8.664;2024-01-06T00:10:22;137.77;;;58.80;;
29516;SDS011;40993;50.594;8.664;2024-01-06T00:12:49;140.50;;;58.42;;
29516;SDS011;40993;50.594;8.664;2024-01-06T00:15:17;146.60;;;60.60;;
29516;SDS011;40993;50.594;8.664;2024-01-06T00:17:45;151.73;;;59.53;;
29516;SDS011;40993;50.594;8.664;2024-01-06T00:20:12;144.38;;;60.33;;
29516;SDS011;40993;50.594;8.664;2024-01-06T00:22:41;136.00;;;57.47;;
29516;SDS011;40993;50.594;8.664;2024-01-06T00:25:10;140.32;;;59.60;;
29516;SDS011;40993;50.594;8.664;2024-01-06T00:27:38;149.95;;;61.20;;
29516;SDS011;40993;50.594;8.664;2024-01-06T00:30:06;146.23;;;58.35;;
29516;SDS011;40993;50.594;8.664;2024-01-06T00:32:34;144.70;;;59.42;;
29516;SDS011;40993;50.594;8.664;2024-01-06T00:35:03;135.82;;;56.38;;
29516;SDS011;40993;50.594;8.664;2024-01-06T00:37:31;143.88;;;59.90;;
29516;SDS011;40993;50.594;8.664;2024-01-06T00:40:00;144.27;;;58.20;;
29516;SDS011;40993;50.594;8.664;2024-01-06T00:42:28;137.88;;;58.17;;
29516;SDS011;40993;50.594;8.664;2024-01-06T00:44:56;142.35;;;58.97;;
29516;SDS011;40993;50.594;8.664;2024-01-06T00:47:23;147.02;;;58.97;;
29516;SDS011;40993;50.594;8.664;2024-01-06T00:49:51;148.88;;;58.10;;
29516;SDS011;40993;50.594;8.664;2024-01-06T00:52:19;146.85;;;58.45;;
29516;SDS011;40993;50.594;8.664;2024-01-06T00:54:46;135.98;;;57.08;;
29516;SDS011;40993;50.594;8.664;2024-01-06T00:57:15;135.82;;;57.10;;
29516;SDS011;40993;50.594;8.664;2024-01-06T00:59:43;145.05;;;56.58;;
29516;SDS011;40993;50.594;8.664;2024-01-06T01:02:10;139.68;;;58.05;;
29516;SDS011;40993;50.594;8.664;2024-01-06T01:04:38;139.93;;;57.95;;
29516;SDS011;40993;50.594;8.664;2024-01-06T01:07:06;139.18;;;57.33;;
29516;SDS011;40993;50.594;8.664;2024-01-06T01:09:34;140.88;;;58.25;;
29516;SDS011;40993;50.594;8.664;2024-01-06T01:12:02;142.43;;;55.83;;
29516;SDS011;40993;50.594;8.664;2024-01-06T01:14:31;135.40;;;54.42;;
29516;SDS011;40993;50.594;8.664;2024-01-06T01:16:58;129.05;;;54.75;;
29516;SDS011;40993;50.594;8.664;2024-01-06T01:19:26;138.15;;;55.80;;
29516;SDS011;40993;50.594;8.664;2024-01-06T01:21:53;130.27;;;53.88;;
29516;SDS011;40993;50.594;8.664;2024-01-06T01:24:22;121.80;;;51.88;;
29516;SDS011;40993;50.594;8.664;2024-01-06T01:26:50;125.72;;;53.22;;
29516;SDS011;40993;50.594;8.664;2024-01-06T01:29:17;120.68;;;51.85;;
29516;SDS011;40993;50.594;8.664;2024-01-06T01:31:47;123.53;;;51.38;;
29516;SDS011;40993;50.594;8.664;2024-01-06T01:34:15;110.80;;;49.80;;
29516;SDS011;40993;50.594;8.664;2024-01-06T01:36:43;112.38;;;50.85;;
29516;SDS011;40993;50.594;8.664;2024-01-06T01:39:10;123.22;;;51.90;;
29516;SDS011;40993;50.594;8.664;2024-01-06T01:41:39;137.25;;;52.53;;
29516;SDS011;40993;50.594;8.664;2024-01-06T01:44:06;119.38;;;52.50;;
29516;SDS011;40993;50.594;8.664;2024-01-06T01:46:34;122.05;;;52.85;;
29516;SDS011;40993;50.594;8.664;2024-01-06T01:49:03;114.60;;;50.85;;
29516;SDS011;40993;50.594;8.664;2024-01-06T01:51:32;121.78;;;50.45;;
29516;SDS011;40993;50.594;8.664;2024-01-06T01:54:01;116.38;;;49.00;;
29516;SDS011;40993;50.594;8.664;2024-01-06T01:56:28;115.30;;;50.45;;
29516;SDS011;40993;50.594;8.664;2024-01-06T01:59:00;112.82;;;49.97;;
29516;SDS011;40993;50.594;8.664;2024-01-06T02:01:28;112.63;;;49.30;;
29516;SDS011;40993;50.594;8.664;2024-01-06T02:03:57;119.55;;;50.80;;
29516;SDS011;40993;50.594;8.664;2024-01-06T02:06:27;121.05;;;51.35;;
29516;SDS011;40993;50.594;8.664;2024-01-06T02:08:54;116.82;;;48.20;;
29516;SDS011;40993;50.594;8.664;2024-01-06T02:11:22;114.53;;;50.13;;
29516;SDS011;40993;50.594;8.664;2024-01-06T02:13:50;112.25;;;49.20;;
29516;SDS011;40993;50.594;8.664;2024-01-06T02:16:17;116.57;;;49.83;;
29516;SDS011;40993;50.594;8.664;2024-01-06T02:18:45;111.35;;;50.28;;
29516;SDS011;40993;50.594;8.664;2024-01-06T02:21:13;111.63;;;49.47;;
29516;SDS011;40993;50.594;8.664;2024-01-06T02:23:43;110.55;;;49.33;;
29516;SDS011;40993;50.594;8.664;2024-01-06T02:26:10;124.82;;;50.53;;
29516;SDS011;40993;50.594;8.664;2024-01-06T02:28:39;119.75;;;49.63;;
29516;SDS011;40993;50.594;8.664;2024-01-06T02:31:07;125.85;;;50.40;;
29516;SDS011;40993;50.594;8.664;2024-01-06T02:33:34;116.32;;;50.03;;
29516;SDS011;40993;50.594;8.664;2024-01-06T02:36:03;117.65;;;50.53;;
29516;SDS011;40993;50.594;8.664;2024-01-06T02:38:31;111.72;;;49.20;;
29516;SDS011;40993;50.594;8.664;2024-01-06T02:41:00;114.90;;;48.47;;
29516;SDS011;40993;50.594;8.664;2024-01-06T02:43:27;113.28;;;48.75;;
29516;SDS011;40993;50.594;8.664;2024-01-06T02:45:55;116.25;;;50.17;;
29516;SDS011;40993;50.594;8.664;2024-01-06T02:48:22;115.88;;;49.10;;
29516;SDS011;40993;50.594;8.664;2024-01-06T02:50:50;126.93;;;51.75;;
29516;SDS011;40993;50.594;8.664;2024-01-06T02:53:18;130.15;;;51.63;;
29516;SDS011;40993;50.594;8.664;2024-01-06T02:55:45;120.18;;;50.40;;
29516;SDS011;40993;50.594;8.664;2024-01-06T02:58:14;115.40;;;49.28;;
29516;SDS011;40993;50.594;8.664;2024-01-06T03:00:42;118.93;;;49.88;;
29516;SDS011;40993;50.594;8.664;2024-01-06T03:03:09;114.20;;;49.88;;
29516;SDS011;40993;50.594;8.664;2024-01-06T03:05:37;115.03;;;48.70;;
29516;SDS011;40993;50.594;8.664;2024-01-06T03:08:05;117.47;;;49.60;;
29516;SDS011;40993;50.594;8.664;2024-01-06T03:10:32;117.68;;;48.35;;
29516;SDS011;40993;50.594;8.664;2024-01-06T03:13:00;126.82;;;50.53;;
29516;SDS011;40993;50.594;8.664;2024-01-06T03:15:29;109.88;;;46.75;;
29516;SDS011;40993;50.594;8.664;2024-01-06T03:17:57;127.07;;;50.03;;
29516;SDS011;40993;50.594;8.664;2024-01-06T03:20:24;118.10;;;47.72;;
29516;SDS011;40993;50.594;8.664;2024-01-06T03:22:52;113.82;;;48.47;;
29516;SDS011;40993;50.594;8.664;2024-01-06T03:25:19;122.93;;;49.80;;
29516;SDS011;40993;50.594;8.664;2024-01-06T03:27:47;114.28;;;47.38;;
29516;SDS011;40993;50.594;8.664;2024-01-06T03:30:15;119.88;;;49.05;;
29516;SDS011;40993;50.594;8.664;2024-01-06T03:32:44;113.82;;;48.80;;
29516;SDS011;40993;50.594;8.664;2024-01-06T03:35:11;111.20;;;48.30;;
29516;SDS011;40993;50.594;8.664;2024-01-06T03:37:39;113.25;;;47.63;;
29516;SDS011;40993;50.594;8.664;2024-01-06T03:40:07;116.07;;;49.00;;
29516;SDS011;40993;50.594;8.664;2024-01-06T03:42:35;119.78;;;49.17;;
29516;SDS011;40993;50.594;8.664;2024-01-06T03:45:04;112.75;;;46.83;;
29516;SDS011;40993;50.594;8.664;2024-01-06T03:47:31;120.32;;;49.95;;
29516;SDS011;40993;50.594;8.664;2024-01-06T03:50:00;115.10;;;47.92;;
29516;SDS011;40993;50.594;8.664;2024-01-06T03:52:28;124.18;;;48.55;;
29516;SDS011;40993;50.594;8.664;2024-01-06T03:54:56;119.93;;;49.15;;
29516;SDS011;40993;50.594;8.664;2024-01-06T03:57:23;125.25;;;49.45;;
29516;SDS011;40993;50.594;8.664;2024-01-06T03:59:51;131.10;;;51.65;;
29516;SDS011;40993;50.594;8.664;2024-01-06T04:02:18;126.45;;;49.90;;
29516;SDS011;40993;50.594;8.664;2024-01-06T04:04:46;125.10;;;49.92;;
29516;SDS011;40993;50.594;8.664;2024-01-06T04:07:15;130.52;;;49.90;;
29516;SDS011;40993;50.594;8.664;2024-01-06T04:09:42;133.98;;;51.65;;
29516;SDS011;40993;50.594;8.664;2024-01-06T04:12:10;122.95;;;49.78;;
29516;SDS011;40993;50.594;8.664;2024-01-06T04:14:38;127.78;;;49.35;;
29516;SDS011;40993;50.594;8.664;2024-01-06T04:17:05;121.47;;;50.95;;
29516;SDS011;40993;50.594;8.664;2024-01-06T04:19:33;128.25;;;51.25;;
29516;SDS011;40993;50.594;8.664;2024-01-06T04:22:01;125.57;;;47.90;;
29516;SDS011;40993;50.594;8.664;2024-01-06T04:24:30;125.30;;;50.00;;
29516;SDS011;40993;50.594;8.664;2024-01-06T04:26:57;121.47;;;48.78;;
29516;SDS011;40993;50.594;8.664;2024-01-06T04:29:25;123.03;;;48.05;;
29516;SDS011;40993;50.594;8.664;2024-01-06T04:31:53;133.73;;;51.45;;
29516;SDS011;40993;50.594;8.664;2024-01-06T04:34:20;139.88;;;51.63;;
29516;SDS011;40993;50.594;8.664;2024-01-06T04:36:48;132.60;;;49.85;;
29516;SDS011;40993;50.594;8.664;2024-01-06T04:39:16;134.73;;;51.30;;
29516;SDS011;40993;50.594;8.664;2024-01-06T04:41:45;127.13;;;48.90;;
29516;SDS011;40993;50.594;8.664;2024-01-06T04:44:13;134.75;;;49.53;;
29516;SDS011;40993;50.594;8.664;2024-01-06T04:46:40;136.60;;;49.75;;
29516;SDS011;40993;50.594;8.664;2024-01-06T04:49:08;133.25;;;49.80;;
29516;SDS011;40993;50.594;8.664;2024-01-06T04:51:35;138.27;;;50.95;;
29516;SDS011;40993;50.594;8.664;2024-01-06T04:54:03;122.93;;;50.10;;
29516;SDS011;40993;50.594;8.664;2024-01-06T04:56:31;125.10;;;49.22;;
29516;SDS011;40993;50.594;8.664;2024-01-06T04:59:03;132.43;;;48.65;;
29516;SDS011;40993;50.594;8.664;2024-01-06T05:01:31;131.27;;;49.15;;
29516;SDS011;40993;50.594;8.664;2024-01-06T05:03:59;129.32;;;49.80;;
29516;SDS011;40993;50.594;8.664;2024-01-06T05:06:27;136.20;;;49.25;;
29516;SDS011;40993;50.594;8.664;2024-01-06T05:08:54;129.90;;;48.88;;
29516;SDS011;40993;50.594;8.664;2024-01-06T05:11:22;135.85;;;50.67;;
29516;SDS011;40993;50.594;8.664;2024-01-06T05:13:49;136.65;;;50.55;;
29516;SDS011;40993;50.594;8.664;2024-01-06T05:16:18;130.15;;;50.33;;
29516;SDS011;40993;50.594;8.664;2024-01-06T05:18:46;122.30;;;48.42;;
29516;SDS011;40993;50.594;8.664;2024-01-06T05:21:13;128.05;;;50.22;;
29516;SDS011;40993;50.594;8.664;2024-01-06T05:23:41;124.60;;;49.78;;
29516;SDS011;40993;50.594;8.664;2024-01-06T05:26:09;129.90;;;51.00;;
29516;SDS011;40993;50.594;8.664;2024-01-06T05:28:38;136.73;;;51.60;;
29516;SDS011;40993;50.594;8.664;2024-01-06T05:31:05;140.80;;;52.65;;
29516;SDS011;40993;50.594;8.664;2024-01-06T05:33:34;137.63;;;52.58;;
29516;SDS011;40993;50.594;8.664;2024-01-06T05:36:03;145.38;;;53.58;;
29516;SDS011;40993;50.594;8.664;2024-01-06T05:38:30;133.48;;;52.95;;
29516;SDS011;40993;50.594;8.664;2024-01-06T05:40:58;145.68;;;53.50;;
29516;SDS011;40993;50.594;8.664;2024-01-06T05:43:25;142.75;;;54.42;;
29516;SDS011;40993;50.594;8.664;2024-01-06T05:45:53;142.73;;;54.28;;
29516;SDS011;40993;50.594;8.664;2024-01-06T05:48:21;142.90;;;53.35;;
29516;SDS011;40993;50.594;8.664;2024-01-06T05:50:50;143.00;;;53.35;;
29516;SDS011;40993;50.594;8.664;2024-01-06T05:53:18;139.70;;;53.38;;
29516;SDS011;40993;50.594;8.664;2024-01-06T05:55:45;155.50;;;57.22;;
29516;SDS011;40993;50.594;8.664;2024-01-06T05:58:13;148.85;;;55.00;;
29516;SDS011;40993;50.594;8.664;2024-01-06T06:00:40;151.30;;;55.17;;
29516;SDS011;40993;50.594;8.664;2024-01-06T06:03:08;149.98;;;56.40;;
29516;SDS011;40993;50.594;8.664;2024-01-06T06:05:35;152.32;;;56.13;;
29516;SDS011;40993;50.594;8.664;2024-01-06T06:08:05;150.38;;;55.13;;
29516;SDS011;40993;50.594;8.664;2024-01-06T06:10:32;150.38;;;53.78;;
29516;SDS011;40993;50.594;8.664;2024-01-06T06:13:07;150.10;;;55.72;;
29516;SDS011;40993;50.594;8.664;2024-01-06T06:15:37;145.40;;;54.95;;
29516;SDS011;40993;50.594;8.664;2024-01-06T06:18:04;149.10;;;55.92;;
29516;SDS011;40993;50.594;8.664;2024-01-06T06:20:33;141.73;;;53.65;;
29516;SDS011;40993;50.594;8.664;2024-01-06T06:23:00;156.68;;;56.25;;
29516;SDS011;40993;50.594;8.664;2024-01-06T06:25:29;139.52;;;55.35;;
29516;SDS011;40993;50.594;8.664;2024-01-06T06:27:56;164.85;;;57.85;;
29516;SDS011;40993;50.594;8.664;2024-01-06T06:30:24;145.68;;;53.67;;
29516;SDS011;40993;50.594;8.664;2024-01-06T06:32:52;149.63;;;53.28;;
29516;SDS011;40993;50.594;8.664;2024-01-06T06:35:20;142.75;;;54.08;;
29516;SDS011;40993;50.594;8.664;2024-01-06T06:37:47;141.45;;;53.72;;
29516;SDS011;40993;50.594;8.664;2024-01-06T06:40:15;139.63;;;52.92;;
29516;SDS011;40993;50.594;8.664;2024-01-06T06:42:44;143.48;;;54.47;;
29516;SDS011;40993;50.594;8.664;2024-01-06T06:45:12;155.30;;;54.13;;
29516;SDS011;40993;50.594;8.664;2024-01-06T06:47:39;147.10;;;51.92;;
29516;SDS011;40993;50.594;8.664;2024-01-06T06:50:07;138.05;;;51.90;;
29516;SDS011;40993;50.594;8.664;2024-01-06T06:52:35;143.27;;;53.65;;
29516;SDS011;40993;50.594;8.664;2024-01-06T06:55:03;143.88;;;52.58;;
29516;SDS011;40993;50.594;8.664;2024-01-06T06:57:31;151.73;;;52.58;;
29516;SDS011;40993;50.594;8.664;2024-01-06T07:00:00;143.85;;;52.13;;
29516;SDS011;40993;50.594;8.664;2024-01-06T07:02:28;142.10;;;51.50;;
29516;SDS011;40993;50.594;8.664;2024-01-06T07:04:55;130.75;;;49.40;;
29516;SDS011;40993;50.594;8.664;2024-01-06T07:07:23;145.63;;;50.10;;
29516;SDS011;40993;50.594;8.664;2024-01-06T07:09:50;134.15;;;50.22;;
29516;SDS011;40993;50.594;8.664;2024-01-06T07:12:18;144.80;;;50.70;;
29516;SDS011;40993;50.594;8.664;2024-01-06T07:14:45;135.98;;;49.85;;
29516;SDS011;40993;50.594;8.664;2024-01-06T07:17:15;141.50;;;52.40;;
29516;SDS011;40993;50.594;8.664;2024-01-06T07:19:42;135.68;;;50.15;;
29516;SDS011;40993;50.594;8.664;2024-01-06T07:22:10;146.93;;;50.88;;
29516;SDS011;40993;50.594;8.664;2024-01-06T07:24:37;140.32;;;50.25;;
29516;SDS011;40993;50.594;8.664;2024-01-06T07:27:05;149.88;;;50.38;;
29516;SDS011;40993;50.594;8.664;2024-01-06T07:29:33;158.55;;;51.15;;
29516;SDS011;40993;50.594;8.664;2024-01-06T07:32:00;137.75;;;50.10;;
29516;SDS011;40993;50.594;8.664;2024-01-06T07:34:29;145.35;;;48.08;;
29516;SDS011;40993;50.594;8.664;2024-01-06T07:36:57;143.77;;;48.65;;
29516;SDS011;40993;50.594;8.664;2024-01-06T07:39:25;139.32;;;49.75;;
29516;SDS011;40993;50.594;8.664;2024-01-06T07:41:52;137.43;;;47.40;;
29516;SDS011;40993;50.594;8.664;2024-01-06T07:44:20;141.77;;;47.53;;
29516;SDS011;40993;50.594;8.664;2024-01-06T07:46:51;147.23;;;48.63;;
29516;SDS011;40993;50.594;8.664;2024-01-06T07:49:18;143.38;;;47.10;;
29516;SDS011;40993;50.594;8.664;2024-01-06T07:51:48;133.70;;;47.63;;
29516;SDS011;40993;50.594;8.664;2024-01-06T07:54:15;141.32;;;48.88;;
29516;SDS011;40993;50.594;8.664;2024-01-06T07:56:43;153.93;;;49.63;;
29516;SDS011;40993;50.594;8.664;2024-01-06T07:59:11;152.45;;;49.38;;
29516;SDS011;40993;50.594;8.664;2024-01-06T08:01:39;140.93;;;49.55;;
29516;SDS011;40993;50.594;8.664;2024-01-06T08:04:09;152.27;;;48.60;;
29516;SDS011;40993;50.594;8.664;2024-01-06T08:06:36;137.55;;;47.92;;
29516;SDS011;40993;50.594;8.664;2024-01-06T08:09:05;138.57;;;45.90;;
29516;SDS011;40993;50.594;8.664;2024-01-06T08:11:34;145.43;;;47.88;;
29516;SDS011;40993;50.594;8.664;2024-01-06T08:14:02;141.15;;;48.58;;
29516;SDS011;40993;50.594;8.664;2024-01-06T08:16:29;126.38;;;48.03;;
29516;SDS011;40993;50.594;8.664;2024-01-06T08:18:58;163.15;;;52.33;;
29516;SDS011;40993;50.594;8.664;2024-01-06T08:21:26;162.10;;;52.58;;
29516;SDS011;40993;50.594;8.664;2024-01-06T08:23:54;150.57;;;51.63;;
29516;SDS011;40993;50.594;8.664;2024-01-06T08:26:23;155.32;;;51.40;;
29516;SDS011;40993;50.594;8.664;2024-01-06T08:28:51;160.43;;;51.45;;
29516;SDS011;40993;50.594;8.664;2024-01-06T08:31:18;152.02;;;50.28;;
29516;SDS011;40993;50.594;8.664;2024-01-06T08:33:46;162.70;;;49.85;;
29516;SDS011;40993;50.594;8.664;2024-01-06T08:36:14;165.25;;;50.92;;
29516;SDS011;40993;50.594;8.664;2024-01-06T08:38:41;155.93;;;49.45;;
29516;SDS011;40993;50.594;8.664;2024-01-06T08:41:09;148.20;;;48.95;;
29516;SDS011;40993;50.594;8.664;2024-01-06T08:43:39;147.30;;;48.53;;
29516;SDS011;40993;50.594;8.664;2024-01-06T08:46:06;161.38;;;49.85;;
29516;SDS011;40993;50.594;8.664;2024-01-06T08:48:34;162.13;;;49.85;;
29516;SDS011;40993;50.594;8.664;2024-01-06T08:51:02;176.95;;;52.40;;
29516;SDS011;40993;50.594;8.664;2024-01-06T08:53:30;190.85;;;57.15;;
29516;SDS011;40993;50.594;8.664;2024-01-06T08:55:57;168.38;;;52.17;;
29516;SDS011;40993;50.594;8.664;2024-01-06T08:58:25;165.65;;;52.60;;
29516;SDS011;40993;50.594;8.664;2024-01-06T09:00:54;161.18;;;52.90;;
29516;SDS011;40993;50.594;8.664;2024-01-06T09:03:21;153.88;;;52.58;;
29516;SDS011;40993;50.594;8.664;2024-01-06T09:05:52;171.75;;;53.08;;
29516;SDS011;40993;50.594;8.664;2024-01-06T09:08:20;149.57;;;50.53;;
29516;SDS011;40993;50.594;8.664;2024-01-06T09:10:47;152.82;;;51.97;;
29516;SDS011;40993;50.594;8.664;2024-01-06T09:13:17;149.27;;;52.67;;
29516;SDS011;40993;50.594;8.664;2024-01-06T09:15:45;163.38;;;49.78;;
29516;SDS011;40993;50.594;8.664;2024-01-06T09:18:14;154.40;;;50.83;;
29516;SDS011;40993;50.594;8.664;2024-01-06T09:20:42;156.98;;;49.85;;
29516;SDS011;40993;50.594;8.664;2024-01-06T09:23:09;143.70;;;49.80;;
29516;SDS011;40993;50.594;8.664;2024-01-06T09:25:37;159.60;;;49.22;;
29516;SDS011;40993;50.594;8.664;2024-01-06T09:28:06;144.25;;;50.42;;
29516;SDS011;40993;50.594;8.664;2024-01-06T09:30:33;221.23;;;81.65;;
29516;SDS011;40993;50.594;8.664;2024-01-06T09:33:01;142.02;;;47.83;;
29516;SDS011;40993;50.594;8.664;2024-01-06T09:35:30;147.00;;;51.22;;
29516;SDS011;40993;50.594;8.664;2024-01-06T09:37:58;152.18;;;54.50;;
29516;SDS011;40993;50.594;8.664;2024-01-06T09:40:26;145.10;;;52.95;;
29516;SDS011;40993;50.594;8.664;2024-01-06T09:42:54;145.13;;;52.90;;
29516;SDS011;40993;50.594;8.664;2024-01-06T09:45:21;156.05;;;52.70;;
29516;SDS011;40993;50.594;8.664;2024-01-06T09:47:50;142.00;;;51.30;;
29516;SDS011;40993;50.594;8.664;2024-01-06T09:50:18;153.55;;;52.85;;
29516;SDS011;40993;50.594;8.664;2024-01-06T09:52:48;138.82;;;53.20;;
29516;SDS011;40993;50.594;8.664;2024-01-06T09:57:47;146.90;;;52.20;;
29516;SDS011;40993;50.594;8.664;2024-01-06T10:00:15;150.25;;;53.67;;
29516;SDS011;40993;50.594;8.664;2024-01-06T10:02:43;147.30;;;53.55;;
29516;SDS011;40993;50.594;8.664;2024-01-06T10:05:12;137.05;;;51.05;;
29516;SDS011;40993;50.594;8.664;2024-01-06T10:07:41;142.20;;;52.30;;
29516;SDS011;40993;50.594;8.664;2024-01-06T10:10:11;137.82;;;53.08;;
29516;SDS011;40993;50.594;8.664;2024-01-06T10:12:39;133.25;;;52.75;;
29516;SDS011;40993;50.594;8.664;2024-01-06T10:15:07;136.00;;;52.28;;
29516;SDS011;40993;50.594;8.664;2024-01-06T10:17:36;141.07;;;53.72;;
29516;SDS011;40993;50.594;8.664;2024-01-06T10:20:06;138.70;;;53.47;;
29516;SDS011;40993;50.594;8.664;2024-01-06T10:22:34;136.48;;;57.08;;
29516;SDS011;40993;50.594;8.664;2024-01-06T10:25:02;151.10;;;59.47;;
29516;SDS011;40993;50.594;8.664;2024-01-06T10:27:31;155.13;;;58.85;;
29516;SDS011;40993;50.594;8.664;2024-01-06T10:30:00;136.13;;;54.03;;
29516;SDS011;40993;50.594;8.664;2024-01-06T10:32:30;136.88;;;52.38;;
29516;SDS011;40993;50.594;8.664;2024-01-06T10:34:59;131.75;;;51.72;;
29516;SDS011;40993;50.594;8.664;2024-01-06T10:37:28;130.60;;;51.78;;
29516;SDS011;40993;50.594;8.664;2024-01-06T10:40:06;121.85;;;51.17;;
29516;SDS011;40993;50.594;8.664;2024-01-06T10:42:35;119.38;;;50.92;;
29516;SDS011;40993;50.594;8.664;2024-01-06T10:45:04;135.88;;;52.72;;
29516;SDS011;40993;50.594;8.664;2024-01-06T10:47:34;125.68;;;51.60;;
29516;SDS011;40993;50.594;8.664;2024-01-06T10:50:01;122.65;;;51.00;;
29516;SDS011;40993;50.594;8.664;2024-01-06T10:52:29;126.30;;;50.08;;
29516;SDS011;40993;50.594;8.664;2024-01-06T10:54:57;115.80;;;51.25;;
29516;SDS011;40993;50.594;8.664;2024-01-06T10:57:25;111.15;;;48.20;;
29516;SDS011;40993;50.594;8.664;2024-01-06T10:59:56;124.43;;;51.95;;
29516;SDS011;40993;50.594;8.664;2024-01-06T11:02:24;111.65;;;48.55;;
29516;SDS011;40993;50.594;8.664;2024-01-06T11:04:52;120.00;;;50.22;;
29516;SDS011;40993;50.594;8.664;2024-01-06T11:07:20;105.68;;;48.67;;
29516;SDS011;40993;50.594;8.664;2024-01-06T11:09:50;105.35;;;46.83;;
29516;SDS011;40993;50.594;8.664;2024-01-06T11:12:18;104.00;;;48.63;;
29516;SDS011;40993;50.594;8.664;2024-01-06T11:14:47;108.25;;;47.80;;
29516;SDS011;40993;50.594;8.664;2024-01-06T11:20:06;105.72;;;48.28;;
29516;SDS011;40993;50.594;8.664;2024-01-06T11:22:34;116.45;;;49.55;;
29516;SDS011;40993;50.594;8.664;2024-01-06T11:25:06;116.72;;;48.47;;
29516;SDS011;40993;50.594;8.664;2024-01-06T11:27:35;106.20;;;48.08;;
29516;SDS011;40993;50.594;8.664;2024-01-06T11:30:03;114.35;;;49.67;;
29516;SDS011;40993;50.594;8.664;2024-01-06T11:32:33;110.35;;;49.38;;
29516;SDS011;40993;50.594;8.664;2024-01-06T11:35:07;107.88;;;47.25;;
29516;SDS011;40993;50.594;8.664;2024-01-06T11:37:36;115.65;;;50.47;;
29516;SDS011;40993;50.594;8.664;2024-01-06T11:40:07;105.38;;;45.80;;
29516;SDS011;40993;50.594;8.664;2024-01-06T11:42:35;117.78;;;53.17;;
29516;SDS011;40993;50.594;8.664;2024-01-06T11:45:03;106.05;;;48.17;;
29516;SDS011;40993;50.594;8.664;2024-01-06T11:47:32;113.15;;;47.88;;
29516;SDS011;40993;50.594;8.664;2024-01-06T11:50:01;101.65;;;45.30;;
29516;SDS011;40993;50.594;8.664;2024-01-06T11:52:32;105.30;;;47.47;;
29516;SDS011;40993;50.594;8.664;2024-01-06T11:55:00;114.90;;;46.53;;
29516;SDS011;40993;50.594;8.664;2024-01-06T11:57:28;98.32;;;44.78;;
29516;SDS011;40993;50.594;8.664;2024-01-06T11:59:56;117.55;;;51.80;;
29516;SDS011;40993;50.594;8.664;2024-01-06T12:02:24;108.95;;;50.35;;
29516;SDS011;40993;50.594;8.664;2024-01-06T12:04:52;105.28;;;46.67;;
29516;SDS011;40993;50.594;8.664;2024-01-06T12:07:21;106.68;;;47.00;;
29516;SDS011;40993;50.594;8.664;2024-01-06T12:09:51;101.60;;;45.40;;
29516;SDS011;40993;50.594;8.664;2024-01-06T12:12:27;110.65;;;47.20;;
29516;SDS011;40993;50.594;8.664;2024-01-06T12:14:55;97.63;;;45.45;;
29516;SDS011;40993;50.594;8.664;2024-01-06T12:17:22;97.50;;;45.22;;
29516;SDS011;40993;50.594;8.664;2024-01-06T12:19:54;93.43;;;44.47;;
29516;SDS011;40993;50.594;8.664;2024-01-06T12:22:22;98.72;;;45.15;;
29516;SDS011;40993;50.594;8.664;2024-01-06T12:24:51;97.55;;;43.97;;
29516;SDS011;40993;50.594;8.664;2024-01-06T12:27:19;104.93;;;46.30;;
29516;SDS011;40993;50.594;8.664;2024-01-06T12:29:48;99.57;;;44.28;;
29516;SDS011;40993;50.594;8.664;2024-01-06T12:32:15;101.60;;;44.80;;
29516;SDS011;40993;50.594;8.664;2024-01-06T12:34:43;104.15;;;45.63;;
29516;SDS011;40993;50.594;8.664;2024-01-06T12:37:10;94.63;;;43.78;;
29516;SDS011;40993;50.594;8.664;2024-01-06T12:39:40;99.07;;;44.55;;
29516;SDS011;40993;50.594;8.664;2024-01-06T12:42:10;99.63;;;44.08;;
29516;SDS011;40993;50.594;8.664;2024-01-06T12:44:37;100.90;;;43.42;;
29516;SDS011;40993;50.594;8.664;2024-01-06T12:47:06;93.85;;;42.72;;
29516;SDS011;40993;50.594;8.664;2024-01-06T12:49:33;102.15;;;44.42;;
29516;SDS011;40993;50.594;8.664;2024-01-06T12:52:04;104.05;;;43.47;;
29516;SDS011;40993;50.594;8.664;2024-01-06T12:54:32;93.85;;;43.80;;
29516;SDS011;40993;50.594;8.664;2024-01-06T12:57:00;100.57;;;44.33;;
29516;SDS011;40993;50.594;8.664;2024-01-06T12:59:29;98.32;;;43.80;;
29516;SDS011;40993;50.594;8.664;2024-01-06T13:01:57;96.57;;;45.03;;
29516;SDS011;40993;50.594;8.664;2024-01-06T13:04:25;97.60;;;43.05;;
29516;SDS011;40993;50.594;8.664;2024-01-06T13:06:53;100.43;;;43.83;;
29516;SDS011;40993;50.594;8.664;2024-01-06T13:09:23;99.15;;;43.72;;
29516;SDS011;40993;50.594;8.664;2024-01-06T13:11:52;104.68;;;45.67;;
29516;SDS011;40993;50.594;8.664;2024-01-06T13:14:22;95.20;;;41.33;;
29516;SDS011;40993;50.594;8.664;2024-01-06T13:16:50;94.85;;;43.28;;
29516;SDS011;40993;50.594;8.664;2024-01-06T13:19:19;97.95;;;42.33;;
29516;SDS011;40993;50.594;8.664;2024-01-06T13:21:47;95.85;;;42.03;;
29516;SDS011;40993;50.594;8.664;2024-01-06T13:24:15;93.50;;;41.30;;
29516;SDS011;40993;50.594;8.664;2024-01-06T13:26:42;84.65;;;39.72;;
29516;SDS011;40993;50.594;8.664;2024-01-06T13:29:10;87.43;;;40.88;;
29516;SDS011;40993;50.594;8.664;2024-01-06T13:31:38;89.63;;;39.20;;
29516;SDS011;40993;50.594;8.664;2024-01-06T13:34:07;87.90;;;39.88;;
29516;SDS011;40993;50.594;8.664;2024-01-06T13:36:35;87.07;;;39.53;;
29516;SDS011;40993;50.594;8.664;2024-01-06T13:39:03;87.85;;;38.22;;
29516;SDS011;40993;50.594;8.664;2024-01-06T13:41:31;85.43;;;38.10;;
29516;SDS011;40993;50.594;8.664;2024-01-06T13:43:59;88.57;;;38.97;;
29516;SDS011;40993;50.594;8.664;2024-01-06T13:46:26;90.03;;;39.20;;
29516;SDS011;40993;50.594;8.664;2024-01-06T13:48:54;90.57;;;38.72;;
29516;SDS011;40993;50.594;8.664;2024-01-06T13:51:23;82.18;;;37.83;;
29516;SDS011;40993;50.594;8.664;2024-01-06T13:53:51;79.68;;;37.55;;
29516;SDS011;40993;50.594;8.664;2024-01-06T13:56:18;83.97;;;37.30;;
29516;SDS011;40993;50.594;8.664;2024-01-06T13:58:46;87.82;;;38.65;;
29516;SDS011;40993;50.594;8.664;2024-01-06T14:01:14;87.10;;;38.70;;
29516;SDS011;40993;50.594;8.664;2024-01-06T14:03:42;84.38;;;38.53;;
29516;SDS011;40993;50.594;8.664;2024-01-06T14:06:10;82.60;;;38.92;;
29516;SDS011;40993;50.594;8.664;2024-01-06T14:08:39;85.28;;;38.05;;
29516;SDS011;40993;50.594;8.664;2024-01-06T14:11:07;86.53;;;38.53;;
29516;SDS011;40993;50.594;8.664;2024-01-06T14:13:35;87.95;;;39.50;;
29516;SDS011;40993;50.594;8.664;2024-01-06T14:16:03;89.32;;;38.83;;
29516;SDS011;40993;50.594;8.664;2024-01-06T14:18:31;88.78;;;38.67;;
29516;SDS011;40993;50.594;8.664;2024-01-06T14:21:00;81.68;;;36.63;;